createdAt,value
2019-01-06T00:00:07.360Z,1021.84
2019-01-06T00:01:07.344Z,1021.80
2019-01-06T00:02:07.215Z,1021.82
2019-01-06T00:03:07.284Z,1021.85
2019-01-06T00:04:07.179Z,1021.86
2019-01-06T00:05:07.125Z,1021.84
2019-01-06T00:06:07.194Z,1021.85
2019-01-06T00:07:07.169Z,1021.87
2019-01-06T00:08:07.021Z,1021.88
2019-01-06T00:09:06.977Z,1021.90
2019-01-06T00:10:06.979Z,1021.96
2019-01-06T00:11:07.118Z,1021.90
2019-01-06T00:12:06.920Z,1021.89
2019-01-06T00:13:06.920Z,1021.86
2019-01-06T00:14:06.850Z,1021.87
2019-01-06T00:15:06.921Z,1021.83
2019-01-06T00:16:06.813Z,1021.85
2019-01-06T00:17:06.835Z,1021.85
2019-01-06T00:18:06.736Z,1021.86
2019-01-06T00:19:07.789Z,1021.82
2019-01-06T00:20:06.640Z,1021.83
2019-01-06T00:21:06.668Z,1021.81
2019-01-06T00:22:06.593Z,1021.80
2019-01-06T00:23:08.655Z,1021.80
2019-01-06T00:24:06.533Z,1021.80
2019-01-06T00:25:07.638Z,1021.80
2019-01-06T00:26:06.475Z,1021.80
2019-01-06T00:27:06.511Z,1021.82
2019-01-06T00:28:06.405Z,1021.81
2019-01-06T00:29:07.442Z,1021.83
2019-01-06T00:30:06.372Z,1021.80
2019-01-06T00:31:06.407Z,1021.81
2019-01-06T00:32:06.286Z,1021.78
2019-01-06T00:33:06.338Z,1021.78
2019-01-06T00:34:06.226Z,1021.76
2019-01-06T00:35:06.260Z,1021.73
2019-01-06T00:36:06.160Z,1021.75
2019-01-06T00:37:06.147Z,1021.77
2019-01-06T00:38:06.121Z,1021.83
2019-01-06T00:39:06.188Z,1021.76
2019-01-06T00:40:06.046Z,1021.82
2019-01-06T00:41:06.075Z,1021.73
2019-01-06T00:42:06.006Z,1021.76
2019-01-06T00:43:05.992Z,1021.78
2019-01-06T00:44:05.914Z,1021.79
2019-01-06T00:45:05.922Z,1021.75
2019-01-06T00:46:05.878Z,1021.77
2019-01-06T00:47:07.892Z,1021.78
2019-01-06T00:48:05.799Z,1021.77
2019-01-06T00:49:06.899Z,1021.79
2019-01-06T00:50:05.737Z,1021.80
2019-01-06T00:51:07.774Z,1021.80
2019-01-06T00:52:05.664Z,1021.81
2019-01-06T00:53:05.687Z,1021.81
2019-01-06T00:54:05.616Z,1021.81
2019-01-06T00:55:05.619Z,1021.80
2019-01-06T00:56:05.563Z,1021.80
2019-01-06T00:57:05.605Z,1021.86
2019-01-06T00:58:05.528Z,1021.83
2019-01-06T00:59:13.117Z,1021.86
2019-01-06T01:00:05.440Z,1021.81
2019-01-06T01:01:20.071Z,1021.83
2019-01-06T01:02:05.387Z,1021.85
2019-01-06T01:03:13.035Z,1021.83
2019-01-06T01:04:05.312Z,1021.87
2019-01-06T01:05:05.371Z,1021.87
2019-01-06T01:06:05.259Z,1021.87
2019-01-06T01:07:06.291Z,1021.92
2019-01-06T01:08:05.166Z,1021.88
2019-01-06T01:09:06.213Z,1021.91
2019-01-06T01:10:05.117Z,1021.88
2019-01-06T01:11:21.127Z,1021.91
2019-01-06T01:12:05.065Z,1021.90
2019-01-06T01:13:05.090Z,1021.89
2019-01-06T01:14:05.041Z,1021.86
2019-01-06T01:15:11.583Z,1021.87
2019-01-06T01:16:04.937Z,1021.92
2019-01-06T01:17:06.970Z,1021.90
2019-01-06T01:18:04.874Z,1021.87
2019-01-06T01:19:12.525Z,1021.88
2019-01-06T01:20:04.839Z,1021.87
2019-01-06T01:21:05.870Z,1021.88
2019-01-06T01:22:04.783Z,1021.83
2019-01-06T01:23:06.826Z,1021.87
2019-01-06T01:24:04.703Z,1021.88
2019-01-06T01:25:06.764Z,1021.86
2019-01-06T01:26:04.649Z,1021.85
2019-01-06T01:27:04.711Z,1021.90
2019-01-06T01:28:04.569Z,1021.89
2019-01-06T01:29:04.649Z,1021.89
2019-01-06T01:30:04.502Z,1021.91
2019-01-06T01:31:04.516Z,1021.92
2019-01-06T01:32:04.456Z,1021.89
2019-01-06T01:33:04.522Z,1021.94
2019-01-06T01:34:04.395Z,1021.90
2019-01-06T01:35:05.468Z,1021.92
2019-01-06T01:36:04.316Z,1022.01
2019-01-06T01:37:04.354Z,1021.99
2019-01-06T01:38:04.249Z,1021.96
2019-01-06T01:39:04.259Z,1022.00
2019-01-06T01:40:04.189Z,1021.96
2019-01-06T01:41:04.277Z,1021.99
2019-01-06T01:42:04.148Z,1021.92
2019-01-06T01:43:04.201Z,1021.99
2019-01-06T01:44:04.054Z,1022.01
2019-01-06T01:45:04.068Z,1021.98
2019-01-06T01:46:04.009Z,1021.98
2019-01-06T01:47:04.075Z,1021.99
2019-01-06T01:48:03.930Z,1021.97
2019-01-06T01:49:03.998Z,1021.95
2019-01-06T01:50:03.865Z,1021.97
2019-01-06T01:51:03.905Z,1021.95
2019-01-06T01:52:03.822Z,1021.97
2019-01-06T01:53:03.809Z,1021.97
2019-01-06T01:54:03.780Z,1021.99
2019-01-06T01:55:03.828Z,1022.02
2019-01-06T01:56:03.683Z,1021.98
2019-01-06T01:57:03.741Z,1022.02
2019-01-06T01:58:03.607Z,1021.93
2019-01-06T01:59:03.648Z,1021.99
2019-01-06T02:00:03.558Z,1022.00
2019-01-06T02:01:03.553Z,1021.97
2019-01-06T02:02:03.569Z,1021.97
2019-01-06T02:03:03.592Z,1021.96
2019-01-06T02:04:03.428Z,1021.99
2019-01-06T02:05:04.508Z,1021.98
2019-01-06T02:06:03.371Z,1021.97
2019-01-06T02:07:03.425Z,1021.97
2019-01-06T02:08:03.320Z,1021.97
2019-01-06T02:09:05.358Z,1021.97
2019-01-06T02:10:03.311Z,1021.96
2019-01-06T02:11:03.220Z,1021.98
2019-01-06T02:12:03.250Z,1022.03
2019-01-06T02:13:03.193Z,1022.02
2019-01-06T02:14:03.237Z,1022.02
2019-01-06T02:15:03.093Z,1021.98
2019-01-06T02:16:03.148Z,1021.97
2019-01-06T02:17:03.024Z,1022.01
2019-01-06T02:18:03.111Z,1022.04
2019-01-06T02:19:02.960Z,1022.04
2019-01-06T02:20:02.969Z,1022.06
2019-01-06T02:21:02.931Z,1022.02
2019-01-06T02:22:02.982Z,1022.04
2019-01-06T02:23:02.849Z,1022.01
2019-01-06T02:24:02.892Z,1021.99
2019-01-06T02:25:02.788Z,1022.04
2019-01-06T02:26:03.833Z,1022.06
2019-01-06T02:27:02.716Z,1022.03
2019-01-06T02:28:02.743Z,1022.04
2019-01-06T02:29:02.663Z,1022.05
2019-01-06T02:30:02.742Z,1022.09
2019-01-06T02:31:02.624Z,1022.04
2019-01-06T02:32:02.639Z,1022.08
2019-01-06T02:33:02.538Z,1022.05
2019-01-06T02:34:02.536Z,1022.03
2019-01-06T02:35:02.561Z,1022.06
2019-01-06T02:36:02.458Z,1022.10
2019-01-06T02:37:02.477Z,1022.10
2019-01-06T02:38:02.397Z,1022.10
2019-01-06T02:39:04.417Z,1022.10
2019-01-06T02:40:02.321Z,1022.11
2019-01-06T02:41:02.415Z,1022.11
2019-01-06T02:42:02.260Z,1022.10
2019-01-06T02:43:03.363Z,1022.12
2019-01-06T02:44:02.193Z,1022.10
2019-01-06T02:45:04.262Z,1022.09
2019-01-06T02:46:02.151Z,1022.11
2019-01-06T02:47:02.210Z,1022.10
2019-01-06T02:48:02.091Z,1022.10
2019-01-06T02:49:03.158Z,1022.14
2019-01-06T02:50:02.012Z,1022.17
2019-01-06T02:51:02.035Z,1022.11
2019-01-06T02:52:01.958Z,1022.13
2019-01-06T02:53:02.004Z,1022.08
2019-01-06T02:54:01.922Z,1022.13
2019-01-06T02:55:01.983Z,1022.12
2019-01-06T02:56:01.822Z,1022.12
2019-01-06T02:57:01.893Z,1022.15
2019-01-06T02:58:01.763Z,1022.15
2019-01-06T02:59:01.780Z,1022.15
2019-01-06T03:00:01.729Z,1022.19
2019-01-06T03:01:03.739Z,1022.19
2019-01-06T03:02:01.681Z,1022.16
2019-01-06T03:03:01.727Z,1022.14
2019-01-06T03:04:01.629Z,1022.19
2019-01-06T03:05:01.631Z,1022.17
2019-01-06T03:06:01.525Z,1022.15
2019-01-06T03:07:01.571Z,1022.17
2019-01-06T03:08:01.456Z,1022.15
2019-01-06T03:09:01.448Z,1022.11
2019-01-06T03:10:01.460Z,1022.13
2019-01-06T03:11:01.464Z,1022.12
2019-01-06T03:12:01.340Z,1022.10
2019-01-06T03:13:01.375Z,1022.08
2019-01-06T03:14:01.284Z,1022.05
2019-01-06T03:15:01.314Z,1022.10
2019-01-06T03:16:01.257Z,1022.04
2019-01-06T03:17:01.295Z,1022.04
2019-01-06T03:18:01.165Z,1022.07
2019-01-06T03:19:01.193Z,1022.08
2019-01-06T03:20:01.078Z,1022.06
2019-01-06T03:21:01.139Z,1022.02
2019-01-06T03:22:01.024Z,1022.03
2019-01-06T03:23:01.007Z,1022.04
2019-01-06T03:24:00.971Z,1022.00
2019-01-06T03:25:02.024Z,1022.05
2019-01-06T03:26:00.991Z,1022.01
2019-01-06T03:27:00.998Z,1022.00
2019-01-06T03:28:00.858Z,1022.01
2019-01-06T03:29:02.913Z,1022.00
2019-01-06T03:30:00.856Z,1022.03
2019-01-06T03:31:01.819Z,1022.02
2019-01-06T03:32:00.757Z,1022.05
2019-01-06T03:33:02.743Z,1021.97
2019-01-06T03:34:00.665Z,1022.01
2019-01-06T03:35:00.697Z,1022.03
2019-01-06T03:36:00.637Z,1022.03
2019-01-06T03:37:01.627Z,1022.04
2019-01-06T03:38:00.550Z,1022.01
2019-01-06T03:39:01.567Z,1021.98
2019-01-06T03:40:00.479Z,1021.98
2019-01-06T03:41:08.153Z,1021.98
2019-01-06T03:42:00.427Z,1022.01
2019-01-06T03:43:01.480Z,1021.99
2019-01-06T03:44:00.396Z,1022.03
2019-01-06T03:45:00.395Z,1022.04
2019-01-06T03:46:00.294Z,1021.99
2019-01-06T03:47:15.148Z,1022.00
2019-01-06T03:48:00.271Z,1021.98
2019-01-06T03:49:17.058Z,1022.01
2019-01-06T03:50:00.247Z,1021.97
2019-01-06T03:51:07.040Z,1021.97
2019-01-06T03:52:00.111Z,1021.92
2019-01-06T03:53:09.142Z,1021.95
2019-01-06T03:54:00.037Z,1021.90
2019-01-06T03:55:21.131Z,1021.95
2019-01-06T03:55:59.960Z,1021.92
2019-01-06T03:57:00.018Z,1021.89
2019-01-06T03:57:59.928Z,1021.89
2019-01-06T03:59:00.951Z,1021.93
2019-01-06T04:00:01.013Z,1021.89
2019-01-06T04:01:00.841Z,1021.87
2019-01-06T04:01:59.779Z,1021.87
2019-01-06T04:03:01.781Z,1021.88
2019-01-06T04:03:59.730Z,1021.90
2019-01-06T04:04:59.774Z,1021.91
2019-01-06T04:05:59.644Z,1021.86
2019-01-06T04:07:01.727Z,1021.86
2019-01-06T04:07:59.587Z,1021.88
2019-01-06T04:08:59.677Z,1021.89
2019-01-06T04:09:59.521Z,1021.87
2019-01-06T04:11:14.654Z,1021.91
2019-01-06T04:11:59.474Z,1021.90
2019-01-06T04:13:06.066Z,1021.92
2019-01-06T04:13:59.404Z,1021.94
2019-01-06T04:15:00.423Z,1021.87
2019-01-06T04:15:59.340Z,1021.91
2019-01-06T04:17:01.032Z,1021.89
2019-01-06T04:17:59.291Z,1021.91
2019-01-06T04:19:00.524Z,1021.90
2019-01-06T04:19:59.237Z,1021.88
2019-01-06T04:21:07.128Z,1021.85
2019-01-06T04:21:59.214Z,1021.89
2019-01-06T04:23:01.221Z,1021.89
2019-01-06T04:23:59.111Z,1021.84
2019-01-06T04:24:59.215Z,1021.85
2019-01-06T04:25:59.083Z,1021.83
2019-01-06T04:26:59.125Z,1021.85
2019-01-06T04:27:59.003Z,1021.86
2019-01-06T04:28:59.034Z,1021.87
2019-01-06T04:29:58.936Z,1021.86
2019-01-06T04:30:58.903Z,1021.86
2019-01-06T04:31:58.859Z,1021.83
2019-01-06T04:32:59.938Z,1021.87
2019-01-06T04:33:58.868Z,1021.82
2019-01-06T04:35:06.681Z,1021.83
2019-01-06T04:35:58.762Z,1021.87
2019-01-06T04:36:58.784Z,1021.89
2019-01-06T04:37:58.672Z,1021.84
2019-01-06T04:39:00.711Z,1021.86
2019-01-06T04:39:58.644Z,1021.88
2019-01-06T04:40:59.694Z,1021.86
2019-01-06T04:41:58.546Z,1021.85
2019-01-06T04:43:00.648Z,1021.84
2019-01-06T04:43:58.505Z,1021.85
2019-01-06T04:44:59.536Z,1021.84
2019-01-06T04:45:58.431Z,1021.84
2019-01-06T04:46:58.523Z,1021.81
2019-01-06T04:47:58.361Z,1021.87
2019-01-06T04:48:58.428Z,1021.84
2019-01-06T04:49:58.299Z,1021.84
2019-01-06T04:50:58.364Z,1021.89
2019-01-06T04:51:58.273Z,1021.88
2019-01-06T04:53:00.293Z,1021.91
2019-01-06T04:53:58.262Z,1021.91
2019-01-06T04:54:59.280Z,1021.95
2019-01-06T04:55:58.119Z,1021.94
2019-01-06T04:57:06.151Z,1021.92
2019-01-06T04:57:58.051Z,1021.91
2019-01-06T04:59:05.666Z,1021.92
2019-01-06T04:59:57.990Z,1021.93
2019-01-06T05:01:00.045Z,1021.89
2019-01-06T05:01:58.021Z,1021.92
2019-01-06T05:02:59.000Z,1021.91
2019-01-06T05:03:57.853Z,1021.91
2019-01-06T05:04:58.985Z,1021.90
2019-01-06T05:05:57.798Z,1021.91
2019-01-06T05:07:05.585Z,1021.90
2019-01-06T05:07:57.761Z,1021.89
2019-01-06T05:09:06.651Z,1021.92
2019-01-06T05:09:57.686Z,1021.91
2019-01-06T05:10:59.704Z,1021.94
2019-01-06T05:11:57.695Z,1021.93
2019-01-06T05:12:57.708Z,1022.00
2019-01-06T05:13:57.618Z,1021.98
2019-01-06T05:14:58.581Z,1021.95
2019-01-06T05:15:57.516Z,1021.95
2019-01-06T05:16:59.523Z,1021.94
2019-01-06T05:17:57.444Z,1021.98
2019-01-06T05:19:04.134Z,1021.95
2019-01-06T05:19:57.412Z,1021.98
2019-01-06T05:20:57.360Z,1021.91
2019-01-06T05:21:57.330Z,1021.97
2019-01-06T05:23:04.180Z,1021.95
2019-01-06T05:23:57.250Z,1021.96
2019-01-06T05:25:04.088Z,1021.93
2019-01-06T05:25:57.185Z,1021.92
2019-01-06T05:26:57.253Z,1021.91
2019-01-06T05:27:57.140Z,1021.92
2019-01-06T05:28:59.193Z,1021.97
2019-01-06T05:29:57.062Z,1021.93
2019-01-06T05:30:57.025Z,1021.96
2019-01-06T05:31:57.016Z,1021.93
2019-01-06T05:32:57.108Z,1021.91
2019-01-06T05:33:56.962Z,1021.91
2019-01-06T05:35:03.627Z,1021.96
2019-01-06T05:35:56.899Z,1021.94
2019-01-06T05:36:58.949Z,1021.89
2019-01-06T05:37:56.844Z,1021.97
2019-01-06T05:38:58.881Z,1021.96
2019-01-06T05:39:56.798Z,1021.98
2019-01-06T05:40:57.844Z,1021.94
2019-01-06T05:41:56.693Z,1021.96
2019-01-06T05:42:56.739Z,1021.95
2019-01-06T05:43:56.649Z,1021.98
2019-01-06T05:44:56.626Z,1021.98
2019-01-06T05:45:56.568Z,1021.99
2019-01-06T05:46:56.632Z,1021.93
2019-01-06T05:47:56.503Z,1021.94
2019-01-06T05:48:58.523Z,1021.96
2019-01-06T05:49:56.433Z,1021.98
2019-01-06T05:50:56.506Z,1021.94
2019-01-06T05:51:56.394Z,1021.95
2019-01-06T05:52:57.421Z,1021.94
2019-01-06T05:53:56.317Z,1021.96
2019-01-06T05:55:05.145Z,1022.00
2019-01-06T05:55:56.258Z,1021.98
2019-01-06T05:56:57.302Z,1022.04
2019-01-06T05:57:56.228Z,1022.01
2019-01-06T05:58:57.217Z,1022.03
2019-01-06T05:59:56.150Z,1022.03
2019-01-06T06:00:57.040Z,1022.03
2019-01-06T06:01:56.069Z,1022.02
2019-01-06T06:02:56.105Z,1022.01
2019-01-06T06:03:56.032Z,1021.96
2019-01-06T06:04:56.041Z,1022.00
2019-01-06T06:05:55.944Z,1021.99
2019-01-06T06:06:55.975Z,1021.98
2019-01-06T06:07:55.897Z,1022.02
2019-01-06T06:08:55.968Z,1022.03
2019-01-06T06:09:55.811Z,1022.07
2019-01-06T06:10:55.918Z,1022.03
2019-01-06T06:11:55.751Z,1022.08
2019-01-06T06:12:55.835Z,1022.05
2019-01-06T06:13:55.706Z,1022.14
2019-01-06T06:14:55.690Z,1022.14
2019-01-06T06:15:55.651Z,1022.13
2019-01-06T06:16:55.716Z,1022.11
2019-01-06T06:17:55.552Z,1022.18
2019-01-06T06:18:55.648Z,1022.14
2019-01-06T06:19:55.530Z,1022.15
2019-01-06T06:20:55.615Z,1022.19
2019-01-06T06:21:55.485Z,1022.20
2019-01-06T06:22:55.448Z,1022.21
2019-01-06T06:23:55.388Z,1022.20
2019-01-06T06:24:55.432Z,1022.23
2019-01-06T06:25:55.303Z,1022.23
2019-01-06T06:26:55.332Z,1022.25
2019-01-06T06:27:55.250Z,1022.23
2019-01-06T06:28:55.250Z,1022.28
2019-01-06T06:29:55.187Z,1022.21
2019-01-06T06:30:56.187Z,1022.26
2019-01-06T06:31:55.106Z,1022.24
2019-01-06T06:32:56.211Z,1022.26
2019-01-06T06:33:55.079Z,1022.26
2019-01-06T06:34:55.110Z,1022.24
2019-01-06T06:35:54.985Z,1022.30
2019-01-06T06:36:54.992Z,1022.28
2019-01-06T06:37:54.930Z,1022.30
2019-01-06T06:38:54.993Z,1022.26
2019-01-06T06:39:54.860Z,1022.35
2019-01-06T06:40:54.905Z,1022.31
2019-01-06T06:41:54.811Z,1022.33
2019-01-06T06:42:54.825Z,1022.33
2019-01-06T06:43:54.749Z,1022.32
2019-01-06T06:44:56.807Z,1022.36
2019-01-06T06:45:54.728Z,1022.38
2019-01-06T06:46:54.750Z,1022.35
2019-01-06T06:47:54.636Z,1022.40
2019-01-06T06:48:54.657Z,1022.42
2019-01-06T06:49:54.557Z,1022.43
2019-01-06T06:50:55.591Z,1022.45
2019-01-06T06:51:54.516Z,1022.42
2019-01-06T06:52:54.489Z,1022.39
2019-01-06T06:53:54.462Z,1022.42
2019-01-06T06:54:54.514Z,1022.46
2019-01-06T06:55:54.388Z,1022.40
2019-01-06T06:56:55.439Z,1022.46
2019-01-06T06:57:54.314Z,1022.45
2019-01-06T06:58:54.318Z,1022.52
2019-01-06T06:59:54.245Z,1022.49
2019-01-06T07:00:54.331Z,1022.51
2019-01-06T07:01:54.172Z,1022.50
2019-01-06T07:02:54.256Z,1022.53
2019-01-06T07:03:54.136Z,1022.52
2019-01-06T07:04:54.109Z,1022.52
2019-01-06T07:05:54.155Z,1022.46
2019-01-06T07:06:54.030Z,1022.47
2019-01-06T07:07:54.085Z,1022.52
2019-01-06T07:08:53.961Z,1022.54
2019-01-06T07:09:53.974Z,1022.51
2019-01-06T07:10:53.902Z,1022.52
2019-01-06T07:11:53.876Z,1022.52
2019-01-06T07:12:53.839Z,1022.52
2019-01-06T07:13:54.923Z,1022.56
2019-01-06T07:14:53.799Z,1022.55
2019-01-06T07:15:55.867Z,1022.54
2019-01-06T07:16:53.712Z,1022.57
2019-01-06T07:17:53.729Z,1022.58
2019-01-06T07:18:53.663Z,1022.62
2019-01-06T07:19:53.722Z,1022.62
2019-01-06T07:20:53.603Z,1022.67
2019-01-06T07:21:53.645Z,1022.65
2019-01-06T07:22:53.525Z,1022.66
2019-01-06T07:23:53.548Z,1022.72
2019-01-06T07:24:53.473Z,1022.69
2019-01-06T07:25:54.495Z,1022.68
2019-01-06T07:26:53.414Z,1022.70
2019-01-06T07:27:53.485Z,1022.73
2019-01-06T07:28:53.361Z,1022.72
2019-01-06T07:29:55.329Z,1022.75
2019-01-06T07:30:53.283Z,1022.74
2019-01-06T07:31:53.306Z,1022.73
2019-01-06T07:32:53.238Z,1022.79
2019-01-06T07:33:53.233Z,1022.79
2019-01-06T07:34:53.158Z,1022.79
2019-01-06T07:35:53.217Z,1022.80
2019-01-06T07:36:53.109Z,1022.86
2019-01-06T07:37:53.136Z,1022.83
2019-01-06T07:38:53.037Z,1022.87
2019-01-06T07:39:54.089Z,1022.88
2019-01-06T07:40:52.981Z,1022.90
2019-01-06T07:41:55.003Z,1022.90
2019-01-06T07:42:52.917Z,1022.91
2019-01-06T07:43:52.967Z,1022.92
2019-01-06T07:44:52.856Z,1022.91
2019-01-06T07:45:52.879Z,1022.89
2019-01-06T07:46:52.781Z,1022.98
2019-01-06T07:47:53.802Z,1022.98
2019-01-06T07:48:52.736Z,1023.01
2019-01-06T07:49:54.759Z,1023.00
2019-01-06T07:50:52.659Z,1023.04
2019-01-06T07:51:52.720Z,1023.03
2019-01-06T07:52:52.592Z,1023.06
2019-01-06T07:53:52.654Z,1023.03
2019-01-06T07:54:52.559Z,1023.06
2019-01-06T07:55:53.583Z,1023.07
2019-01-06T07:56:52.478Z,1023.12
2019-01-06T07:57:52.456Z,1023.13
2019-01-06T07:58:52.418Z,1023.10
2019-01-06T07:59:52.474Z,1023.13
2019-01-06T08:00:52.359Z,1023.15
2019-01-06T08:01:54.441Z,1023.13
2019-01-06T08:02:52.292Z,1023.13
2019-01-06T08:03:53.347Z,1023.16
2019-01-06T08:04:52.237Z,1023.14
2019-01-06T08:05:52.346Z,1023.18
2019-01-06T08:06:52.171Z,1023.16
2019-01-06T08:07:52.220Z,1023.21
2019-01-06T08:08:52.117Z,1023.19
2019-01-06T08:09:52.145Z,1023.23
2019-01-06T08:10:52.053Z,1023.23
2019-01-06T08:11:52.042Z,1023.17
2019-01-06T08:12:51.993Z,1023.25
2019-01-06T08:13:52.059Z,1023.25
2019-01-06T08:14:51.908Z,1023.24
2019-01-06T08:15:51.984Z,1023.24
2019-01-06T08:16:51.842Z,1023.28
2019-01-06T08:17:51.872Z,1023.27
2019-01-06T08:18:51.805Z,1023.31
2019-01-06T08:19:52.822Z,1023.22
2019-01-06T08:20:51.744Z,1023.32
2019-01-06T08:21:51.824Z,1023.34
2019-01-06T08:22:51.715Z,1023.29
2019-01-06T08:23:53.785Z,1023.33
2019-01-06T08:24:51.591Z,1023.28
2019-01-06T08:25:53.702Z,1023.35
2019-01-06T08:26:51.550Z,1023.40
2019-01-06T08:27:51.547Z,1023.42
2019-01-06T08:28:51.478Z,1023.35
2019-01-06T08:29:51.556Z,1023.42
2019-01-06T08:30:51.421Z,1023.39
2019-01-06T08:31:51.523Z,1023.45
2019-01-06T08:32:51.357Z,1023.47
2019-01-06T08:33:52.016Z,1023.43
2019-01-06T08:34:51.329Z,1023.45
2019-01-06T08:35:51.326Z,1023.44
2019-01-06T08:36:51.307Z,1023.43
2019-01-06T08:37:51.410Z,1023.50
2019-01-06T08:38:51.171Z,1023.48
2019-01-06T08:39:51.254Z,1023.47
2019-01-06T08:40:51.114Z,1023.44
2019-01-06T08:42:07.127Z,1023.44
2019-01-06T08:42:51.078Z,1023.40
2019-01-06T08:43:57.754Z,1023.46
2019-01-06T08:44:51.009Z,1023.40
2019-01-06T08:45:51.071Z,1023.43
2019-01-06T08:46:51.005Z,1023.47
2019-01-06T08:48:05.771Z,1023.45
2019-01-06T08:48:52.626Z,1023.46
2019-01-06T08:49:50.886Z,1023.50
2019-01-06T08:50:50.848Z,1023.51
2019-01-06T08:51:50.886Z,1023.51
2019-01-06T08:52:50.769Z,1023.54
2019-01-06T08:53:50.830Z,1023.58
2019-01-06T08:54:50.717Z,1023.55
2019-01-06T08:55:50.737Z,1023.58
2019-01-06T08:56:50.630Z,1023.56
2019-01-06T08:57:50.622Z,1023.53
2019-01-06T08:58:50.573Z,1023.62
2019-01-06T08:59:57.212Z,1023.61
2019-01-06T09:00:50.524Z,1023.61
2019-01-06T09:01:51.583Z,1023.61
2019-01-06T09:02:50.445Z,1023.64
2019-01-06T09:04:50.403Z,1023.63
2019-01-06T09:05:50.527Z,1023.64
2019-01-06T09:06:50.391Z,1023.62
2019-01-06T09:07:52.330Z,1023.61
2019-01-06T09:08:50.281Z,1023.59
2019-01-06T09:09:50.299Z,1023.57
2019-01-06T09:10:50.242Z,1023.62
2019-01-06T09:11:51.243Z,1023.61
2019-01-06T09:12:50.132Z,1023.60
2019-01-06T09:14:12.146Z,1023.65
2019-01-06T09:14:50.110Z,1023.57
2019-01-06T09:15:50.104Z,1023.63
2019-01-06T09:16:50.001Z,1023.62
2019-01-06T09:17:50.033Z,1023.59
2019-01-06T09:18:49.966Z,1023.57
2019-01-06T09:19:52.035Z,1023.58
2019-01-06T09:20:49.877Z,1023.58
2019-01-06T09:21:49.943Z,1023.58
2019-01-06T09:22:49.865Z,1023.59
2019-01-06T09:23:57.651Z,1023.57
2019-01-06T09:24:49.822Z,1023.55
2019-01-06T09:25:50.812Z,1023.57
2019-01-06T09:26:49.792Z,1023.56
2019-01-06T09:28:13.656Z,1023.60
2019-01-06T09:28:49.643Z,1023.61
2019-01-06T09:29:49.608Z,1023.59
2019-01-06T09:30:49.615Z,1023.56
2019-01-06T09:31:49.555Z,1023.60
2019-01-06T09:32:57.212Z,1023.55
2019-01-06T09:33:49.468Z,1023.54
2019-01-06T09:34:51.505Z,1023.60
2019-01-06T09:35:49.421Z,1023.68
2019-01-06T09:36:51.535Z,1023.62
2019-01-06T09:37:49.344Z,1023.69
2019-01-06T09:39:49.279Z,1023.62
2019-01-06T09:40:50.375Z,1023.61
2019-01-06T09:41:49.246Z,1023.68
2019-01-06T09:42:49.265Z,1023.65
2019-01-06T09:43:49.178Z,1023.69
2019-01-06T09:44:49.192Z,1023.68
2019-01-06T09:45:49.123Z,1023.69
2019-01-06T09:46:51.152Z,1023.72
2019-01-06T09:47:49.035Z,1023.71
2019-01-06T09:48:49.109Z,1023.71
2019-01-06T09:49:49.016Z,1023.69
2019-01-06T09:50:55.661Z,1023.71
2019-01-06T09:51:48.954Z,1023.75
2019-01-06T09:52:48.931Z,1023.70
2019-01-06T09:53:48.878Z,1023.70
2019-01-06T09:54:49.838Z,1023.70
2019-01-06T09:55:48.799Z,1023.72
2019-01-06T09:56:55.684Z,1023.68
2019-01-06T09:57:48.732Z,1023.70
2019-01-06T09:58:48.805Z,1023.73
2019-01-06T09:59:48.783Z,1023.72
2019-01-06T10:01:03.680Z,1023.73
2019-01-06T10:01:48.603Z,1023.71
2019-01-06T10:02:55.274Z,1023.76
2019-01-06T10:03:48.564Z,1023.71
2019-01-06T10:04:55.210Z,1023.72
2019-01-06T10:05:48.554Z,1023.75
2019-01-06T10:06:49.511Z,1023.75
2019-01-06T10:07:48.422Z,1023.76
2019-01-06T10:08:48.484Z,1023.76
2019-01-06T10:09:48.362Z,1023.77
2019-01-06T10:10:48.387Z,1023.77
2019-01-06T10:11:48.302Z,1023.80
2019-01-06T10:12:48.300Z,1023.80
2019-01-06T10:13:48.238Z,1023.79
2019-01-06T10:14:48.340Z,1023.84
2019-01-06T10:15:48.198Z,1023.89
2019-01-06T10:16:48.336Z,1023.87
2019-01-06T10:17:48.148Z,1023.83
2019-01-06T10:18:49.158Z,1023.85
2019-01-06T10:19:48.042Z,1023.87
2019-01-06T10:20:48.052Z,1023.85
2019-01-06T10:21:48.021Z,1023.89
2019-01-06T10:22:48.085Z,1023.88
2019-01-06T10:23:47.935Z,1023.90
2019-01-06T10:24:52.067Z,1023.89
2019-01-06T10:25:47.916Z,1023.92
2019-01-06T10:26:47.885Z,1023.93
2019-01-06T10:27:47.841Z,1023.92
2019-01-06T10:28:48.809Z,1023.95
2019-01-06T10:29:47.741Z,1023.88
2019-01-06T10:30:48.719Z,1023.93
2019-01-06T10:31:47.663Z,1023.94
2019-01-06T10:32:47.755Z,1023.91
2019-01-06T10:33:47.610Z,1023.93
2019-01-06T10:34:47.662Z,1023.92
2019-01-06T10:35:47.552Z,1023.95
2019-01-06T10:36:47.548Z,1023.90
2019-01-06T10:37:47.479Z,1023.91
2019-01-06T10:38:47.566Z,1023.89
2019-01-06T10:39:47.445Z,1023.89
2019-01-06T10:40:47.435Z,1023.90
2019-01-06T10:41:47.359Z,1023.89
2019-01-06T10:42:47.410Z,1023.89
2019-01-06T10:43:47.296Z,1023.90
2019-01-06T10:44:47.347Z,1023.90
2019-01-06T10:45:47.239Z,1023.89
2019-01-06T10:46:47.215Z,1023.94
2019-01-06T10:47:47.195Z,1023.90
2019-01-06T10:48:47.238Z,1023.88
2019-01-06T10:49:47.111Z,1023.96
2019-01-06T10:50:47.138Z,1023.94
2019-01-06T10:51:47.043Z,1023.99
2019-01-06T10:52:47.058Z,1023.97
2019-01-06T10:53:46.985Z,1023.91
2019-01-06T10:54:46.962Z,1023.96
2019-01-06T10:55:46.921Z,1023.96
2019-01-06T10:56:46.997Z,1023.94
2019-01-06T10:57:46.874Z,1023.93
2019-01-06T10:58:46.906Z,1023.95
2019-01-06T10:59:46.804Z,1023.95
2019-01-06T11:00:46.780Z,1023.96
2019-01-06T11:01:46.719Z,1024.01
2019-01-06T11:02:46.719Z,1023.98
2019-01-06T11:03:46.696Z,1024.02
2019-01-06T11:04:46.654Z,1024.00
2019-01-06T11:05:46.624Z,1024.01
2019-01-06T11:06:46.589Z,1024.01
2019-01-06T11:07:46.611Z,1024.00
2019-01-06T11:08:46.516Z,1024.07
2019-01-06T11:09:46.472Z,1024.07
2019-01-06T11:10:46.453Z,1024.08
2019-01-06T11:11:46.442Z,1024.12
2019-01-06T11:12:46.404Z,1024.11
2019-01-06T11:13:46.367Z,1024.06
2019-01-06T11:14:46.334Z,1024.09
2019-01-06T11:15:46.304Z,1024.09
2019-01-06T11:16:46.269Z,1024.11
2019-01-06T11:17:46.251Z,1024.12
2019-01-06T11:18:46.216Z,1024.12
2019-01-06T11:19:46.173Z,1024.09
2019-01-06T11:20:46.152Z,1024.09
2019-01-06T11:21:46.111Z,1024.03
2019-01-06T11:22:47.583Z,1024.04
2019-01-06T11:23:46.073Z,1024.04
2019-01-06T11:24:46.014Z,1024.06
2019-01-06T11:25:46.037Z,1024.12
2019-01-06T11:26:45.958Z,1024.04
2019-01-06T11:27:45.952Z,1024.12
2019-01-06T11:28:45.889Z,1024.07
2019-01-06T11:29:45.884Z,1024.08
2019-01-06T11:30:45.844Z,1024.08
2019-01-06T11:31:45.829Z,1024.05
2019-01-06T11:32:45.758Z,1024.12
2019-01-06T11:33:45.777Z,1024.07
2019-01-06T11:34:45.705Z,1024.10
2019-01-06T11:35:45.677Z,1024.09
2019-01-06T11:36:45.650Z,1024.02
2019-01-06T11:37:45.650Z,1024.15
2019-01-06T11:38:45.576Z,1024.07
2019-01-06T11:39:45.615Z,1024.08
2019-01-06T11:40:45.531Z,1024.06
2019-01-06T11:41:45.516Z,1024.13
2019-01-06T11:42:45.450Z,1024.06
2019-01-06T11:43:45.440Z,1024.11
2019-01-06T11:44:45.397Z,1024.07
2019-01-06T11:45:45.365Z,1024.08
2019-01-06T11:46:45.337Z,1024.12
2019-01-06T11:47:46.356Z,1024.11
2019-01-06T11:48:45.276Z,1024.04
2019-01-06T11:49:45.326Z,1024.08
2019-01-06T11:50:45.265Z,1024.04
2019-01-06T11:51:46.255Z,1024.06
2019-01-06T11:52:45.170Z,1024.03
2019-01-06T11:53:46.140Z,1024.03
2019-01-06T11:54:45.086Z,1024.04
2019-01-06T11:55:45.126Z,1024.03
2019-01-06T11:56:45.044Z,1023.97
2019-01-06T11:57:45.084Z,1023.98
2019-01-06T11:58:45.000Z,1023.95
2019-01-06T11:59:44.954Z,1023.94
2019-01-06T12:00:44.945Z,1023.96
2019-01-06T12:01:44.954Z,1023.94
2019-01-06T12:02:44.852Z,1023.98
2019-01-06T12:03:44.870Z,1023.93
2019-01-06T12:04:44.779Z,1023.92
2019-01-06T12:05:44.784Z,1023.94
2019-01-06T12:06:44.721Z,1023.95